RJA433 OJAI-OSAP
Flight info
| Callsign | RJA433 |
|---|---|
| Flight time | 0h 51m |
| Altitude | 27000 |
| Route | LOSAR L513 LEBOR R655 KTN Q538 KILO |
| Aircraft | A21N/M-SDE2E3FGHIRWXY/LB1 |
Departure
| Time | 2026-05-06 14:21 |
|---|---|
| Airport | Queen Alia International Airport (OJAI) |
Arrival
| Time | 2026-05-06 15:12 |
|---|---|
| Airport | Aleppo International Airport (OSAP) |
| Time | Latitude | Longitude | Altitude | Speed | Heading |
|---|---|---|---|---|---|
| 2026-05-06 14:03 | 31.72403 | 35.98505 | 2414 ft | 0 kts | 170° |
| 2026-05-06 14:08 | 31.72417 | 35.98503 | 2412 ft | 4 kts | 200° |
| 2026-05-06 14:09 | 31.72430 | 35.98522 | 2413 ft | 4 kts | 253° |
| 2026-05-06 14:09 | 31.72439 | 35.98548 | 2414 ft | 4 kts | 216° |
| 2026-05-06 14:09 | 31.72455 | 35.98551 | 2411 ft | 4 kts | 168° |
| 2026-05-06 14:09 | 31.72468 | 35.98545 | 2413 ft | 3 kts | 105° |
| 2026-05-06 14:10 | 31.72470 | 35.98517 | 2413 ft | 3 kts | 81° |
| 2026-05-06 14:10 | 31.72470 | 35.98514 | 2413 ft | 0 kts | 81° |
| 2026-05-06 14:12 | 31.72476 | 35.98561 | 2412 ft | 10 kts | 81° |
| 2026-05-06 14:12 | 31.72490 | 35.98658 | 2414 ft | 14 kts | 80° |
| 2026-05-06 14:12 | 31.72507 | 35.98777 | 2414 ft | 16 kts | 80° |
| 2026-05-06 14:12 | 31.72527 | 35.98910 | 2414 ft | 17 kts | 79° |
| 2026-05-06 14:13 | 31.72529 | 35.99056 | 2414 ft | 19 kts | 97° |
| 2026-05-06 14:13 | 31.72543 | 35.99215 | 2414 ft | 20 kts | 81° |
| 2026-05-06 14:13 | 31.72553 | 35.99279 | 2414 ft | 0 kts | 79° |
| 2026-05-06 14:17 | 31.72556 | 35.99297 | 2414 ft | 14 kts | 79° |
| 2026-05-06 14:17 | 31.72594 | 35.99467 | 2414 ft | 24 kts | 35° |
| 2026-05-06 14:18 | 31.72750 | 35.99496 | 2414 ft | 25 kts | 56° |
| 2026-05-06 14:18 | 31.72795 | 35.99699 | 2412 ft | 27 kts | 79° |
| 2026-05-06 14:18 | 31.72831 | 35.99935 | 2414 ft | 32 kts | 81° |
| 2026-05-06 14:18 | 31.72863 | 36.00205 | 2414 ft | 34 kts | 77° |
| 2026-05-06 14:19 | 31.72907 | 36.00476 | 2414 ft | 35 kts | 80° |
| 2026-05-06 14:19 | 31.72945 | 36.00718 | 2414 ft | 27 kts | 77° |
| 2026-05-06 14:19 | 31.73083 | 36.00768 | 2414 ft | 23 kts | 349° |
| 2026-05-06 14:19 | 31.73205 | 36.00722 | 2413 ft | 16 kts | 304° |
| 2026-05-06 14:20 | 31.73201 | 36.00585 | 2413 ft | 28 kts | 261° |
| 2026-05-06 14:20 | 31.73129 | 36.00080 | 2415 ft | 96 kts | 260° |
| 2026-05-06 14:20 | 31.72985 | 35.99105 | 2415 ft | 140 kts | 261° |
| 2026-05-06 14:20 | 31.72809 | 35.97859 | 2594 ft | 159 kts | 262° |
| 2026-05-06 14:21 | 31.72618 | 35.96580 | 3112 ft | 167 kts | 261° |
| 2026-05-06 14:21 | 31.72405 | 35.95186 | 3643 ft | 172 kts | 262° |
| 2026-05-06 14:21 | 31.72205 | 35.93797 | 4245 ft | 172 kts | 264° |
| 2026-05-06 14:21 | 31.72007 | 35.92415 | 4827 ft | 178 kts | 262° |
| 2026-05-06 14:22 | 31.71798 | 35.90931 | 5339 ft | 191 kts | 262° |
| 2026-05-06 14:22 | 31.71779 | 35.89326 | 5836 ft | 207 kts | 282° |
| 2026-05-06 14:22 | 31.72394 | 35.87713 | 6236 ft | 230 kts | 308° |
| 2026-05-06 14:22 | 31.73731 | 35.86564 | 6765 ft | 248 kts | 338° |
| 2026-05-06 14:23 | 31.75469 | 35.86278 | 7510 ft | 258 kts | 357° |
| 2026-05-06 14:23 | 31.77257 | 35.86350 | 8311 ft | 262 kts | 359° |
| 2026-05-06 14:23 | 31.79095 | 35.86426 | 9106 ft | 266 kts | 358° |
| 2026-05-06 14:23 | 31.80965 | 35.86482 | 9885 ft | 271 kts | 356° |
| 2026-05-06 14:24 | 31.82859 | 35.86524 | 10605 ft | 274 kts | 355° |
| 2026-05-06 14:24 | 31.84780 | 35.86555 | 11323 ft | 277 kts | 355° |
| 2026-05-06 14:24 | 31.86696 | 35.86645 | 12052 ft | 284 kts | 2° |
| 2026-05-06 14:24 | 31.88596 | 35.87452 | 12727 ft | 301 kts | 29° |
| 2026-05-06 14:25 | 31.90133 | 35.89256 | 13122 ft | 325 kts | 51° |
| 2026-05-06 14:25 | 31.91426 | 35.91505 | 13677 ft | 336 kts | 54° |
| 2026-05-06 14:25 | 31.92734 | 35.93820 | 14325 ft | 341 kts | 53° |
| 2026-05-06 14:25 | 31.94084 | 35.96137 | 14982 ft | 345 kts | 52° |
| 2026-05-06 14:26 | 31.95463 | 35.98463 | 15652 ft | 349 kts | 51° |
| 2026-05-06 14:26 | 31.96870 | 36.00807 | 16324 ft | 352 kts | 51° |
| 2026-05-06 14:26 | 31.98306 | 36.03164 | 16980 ft | 356 kts | 50° |
| 2026-05-06 14:26 | 31.99755 | 36.05540 | 17614 ft | 361 kts | 51° |
| 2026-05-06 14:27 | 32.01014 | 36.08097 | 18212 ft | 371 kts | 62° |
| 2026-05-06 14:27 | 32.02090 | 36.10927 | 18540 ft | 386 kts | 64° |
| 2026-05-06 14:27 | 32.03174 | 36.13891 | 18789 ft | 402 kts | 64° |
| 2026-05-06 14:27 | 32.04302 | 36.16973 | 19026 ft | 417 kts | 64° |
| 2026-05-06 14:28 | 32.05480 | 36.20166 | 19243 ft | 432 kts | 64° |
| 2026-05-06 14:28 | 32.06704 | 36.23466 | 19457 ft | 446 kts | 64° |
| 2026-05-06 14:28 | 32.07972 | 36.26867 | 19670 ft | 460 kts | 64° |
| 2026-05-06 14:28 | 32.09264 | 36.30341 | 20082 ft | 466 kts | 64° |
| 2026-05-06 14:29 | 32.10569 | 36.33857 | 20602 ft | 470 kts | 64° |
| 2026-05-06 14:29 | 32.11887 | 36.37404 | 21116 ft | 473 kts | 64° |
| 2026-05-06 14:29 | 32.13211 | 36.40974 | 21641 ft | 477 kts | 63° |
| 2026-05-06 14:29 | 32.14602 | 36.44552 | 22119 ft | 480 kts | 59° |
| 2026-05-06 14:30 | 32.16456 | 36.47805 | 22570 ft | 476 kts | 45° |
| 2026-05-06 14:30 | 32.18857 | 36.50458 | 23021 ft | 470 kts | 31° |
| 2026-05-06 14:30 | 32.21571 | 36.52619 | 23492 ft | 470 kts | 27° |
| 2026-05-06 14:30 | 32.24332 | 36.54718 | 23929 ft | 474 kts | 26° |
| 2026-05-06 14:31 | 32.27073 | 36.56810 | 24317 ft | 477 kts | 27° |
| 2026-05-06 14:31 | 32.29893 | 36.58884 | 24761 ft | 476 kts | 22° |
| 2026-05-06 14:31 | 32.32912 | 36.60388 | 25142 ft | 467 kts | 9° |
| 2026-05-06 14:31 | 32.36066 | 36.61081 | 25513 ft | 457 kts | 356° |
| 2026-05-06 14:32 | 32.39211 | 36.60989 | 25897 ft | 450 kts | 347° |
| 2026-05-06 14:32 | 32.42330 | 36.60576 | 26297 ft | 452 kts | 346° |
| 2026-05-06 14:32 | 32.45466 | 36.60133 | 26685 ft | 455 kts | 346° |
| 2026-05-06 14:32 | 32.48616 | 36.59698 | 27026 ft | 456 kts | 346° |
| 2026-05-06 14:33 | 32.51765 | 36.59279 | 27097 ft | 455 kts | 346° |
| 2026-05-06 14:33 | 32.54911 | 36.58867 | 27106 ft | 455 kts | 346° |
| 2026-05-06 14:33 | 32.58059 | 36.58454 | 27099 ft | 455 kts | 346° |
| 2026-05-06 14:33 | 32.61204 | 36.58042 | 27091 ft | 455 kts | 346° |
| 2026-05-06 14:34 | 32.64349 | 36.57630 | 27089 ft | 455 kts | 346° |
| 2026-05-06 14:34 | 32.67494 | 36.57218 | 27087 ft | 455 kts | 346° |
| 2026-05-06 14:34 | 32.70640 | 36.56807 | 27086 ft | 455 kts | 346° |
| 2026-05-06 14:34 | 32.73797 | 36.56450 | 27103 ft | 455 kts | 347° |
| 2026-05-06 14:35 | 32.76905 | 36.56126 | 27094 ft | 454 kts | 347° |
| 2026-05-06 14:35 | 32.80053 | 36.55796 | 27085 ft | 454 kts | 347° |
| 2026-05-06 14:35 | 32.83207 | 36.55465 | 27078 ft | 454 kts | 347° |
| 2026-05-06 14:35 | 32.86355 | 36.55135 | 27077 ft | 454 kts | 347° |
| 2026-05-06 14:36 | 32.89501 | 36.54802 | 27079 ft | 454 kts | 347° |
| 2026-05-06 14:36 | 32.92648 | 36.54469 | 27074 ft | 454 kts | 347° |
| 2026-05-06 14:36 | 32.95797 | 36.54138 | 27098 ft | 453 kts | 347° |
| 2026-05-06 14:36 | 32.98963 | 36.53801 | 27091 ft | 463 kts | 347° |
| 2026-05-06 14:37 | 33.02211 | 36.53451 | 27079 ft | 474 kts | 347° |
| 2026-05-06 14:37 | 33.05482 | 36.52963 | 27070 ft | 475 kts | 346° |
| 2026-05-06 14:37 | 33.08787 | 36.52951 | 27062 ft | 486 kts | 355° |
| 2026-05-06 14:37 | 33.12166 | 36.53217 | 27061 ft | 487 kts | 356° |
| 2026-05-06 14:38 | 33.15540 | 36.53470 | 27057 ft | 486 kts | 355° |
| 2026-05-06 14:38 | 33.18913 | 36.53664 | 27071 ft | 484 kts | 355° |
| 2026-05-06 14:38 | 33.22279 | 36.53817 | 27060 ft | 484 kts | 354° |
| 2026-05-06 14:38 | 33.25652 | 36.53961 | 27054 ft | 484 kts | 354° |
| 2026-05-06 14:39 | 33.29022 | 36.54101 | 27055 ft | 484 kts | 354° |
| 2026-05-06 14:39 | 33.31247 | 36.54195 | 27055 ft | 483 kts | 354° |
| 2026-05-06 14:39 | 33.34612 | 36.54337 | 27056 ft | 484 kts | 354° |
| 2026-05-06 14:39 | 33.37977 | 36.54478 | 27084 ft | 483 kts | 354° |
| 2026-05-06 14:40 | 33.41335 | 36.54620 | 27068 ft | 483 kts | 354° |
| 2026-05-06 14:40 | 33.44693 | 36.54765 | 27054 ft | 483 kts | 354° |
| 2026-05-06 14:40 | 33.48052 | 36.54908 | 27047 ft | 483 kts | 354° |
| 2026-05-06 14:40 | 33.51419 | 36.55055 | 27050 ft | 483 kts | 354° |
| 2026-05-06 14:41 | 33.54776 | 36.55198 | 27047 ft | 483 kts | 354° |
| 2026-05-06 14:41 | 33.58142 | 36.55344 | 27042 ft | 483 kts | 355° |
| 2026-05-06 14:41 | 33.61499 | 36.55489 | 27066 ft | 482 kts | 354° |
| 2026-05-06 14:41 | 33.64849 | 36.55632 | 27048 ft | 482 kts | 354° |
| 2026-05-06 14:42 | 33.68201 | 36.55778 | 27036 ft | 482 kts | 354° |
| 2026-05-06 14:42 | 33.71558 | 36.55926 | 27027 ft | 482 kts | 355° |
| 2026-05-06 14:42 | 33.74918 | 36.56073 | 27022 ft | 482 kts | 355° |
| 2026-05-06 14:42 | 33.78272 | 36.56219 | 27024 ft | 482 kts | 354° |
| 2026-05-06 14:43 | 33.81588 | 36.56360 | 27042 ft | 482 kts | 355° |
| 2026-05-06 14:43 | 33.84952 | 36.56504 | 27040 ft | 482 kts | 355° |
| 2026-05-06 14:43 | 33.88306 | 36.56648 | 27037 ft | 482 kts | 355° |
| 2026-05-06 14:43 | 33.91655 | 36.56792 | 27027 ft | 481 kts | 355° |
| 2026-05-06 14:44 | 33.95003 | 36.56937 | 27033 ft | 482 kts | 355° |
| 2026-05-06 14:44 | 33.98359 | 36.57084 | 27039 ft | 482 kts | 355° |
| 2026-05-06 14:44 | 34.01712 | 36.57225 | 27071 ft | 482 kts | 355° |
| 2026-05-06 14:45 | 34.08408 | 36.57518 | 27047 ft | 482 kts | 356° |
| 2026-05-06 14:45 | 34.11765 | 36.57742 | 27051 ft | 486 kts | 360° |
| 2026-05-06 14:45 | 34.15096 | 36.58670 | 27043 ft | 498 kts | 14° |
| 2026-05-06 14:45 | 34.18200 | 36.60627 | 27043 ft | 510 kts | 29° |
| 2026-05-06 14:46 | 34.20855 | 36.63495 | 27063 ft | 519 kts | 45° |
| 2026-05-06 14:46 | 34.22890 | 36.67105 | 27043 ft | 524 kts | 59° |
| 2026-05-06 14:46 | 34.24268 | 36.71198 | 27045 ft | 528 kts | 71° |
| 2026-05-06 14:46 | 34.24983 | 36.75562 | 27032 ft | 530 kts | 84° |
| 2026-05-06 14:47 | 34.24983 | 36.79957 | 27044 ft | 532 kts | 95° |
| 2026-05-06 14:47 | 34.24626 | 36.84471 | 27058 ft | 532 kts | 97° |
| 2026-05-06 14:47 | 34.24252 | 36.88852 | 27049 ft | 532 kts | 96° |
| 2026-05-06 14:47 | 34.23888 | 36.93300 | 27049 ft | 532 kts | 96° |
| 2026-05-06 14:48 | 34.23537 | 36.97809 | 27041 ft | 532 kts | 96° |
| 2026-05-06 14:48 | 34.23199 | 37.02204 | 27038 ft | 533 kts | 96° |
| 2026-05-06 14:48 | 34.23020 | 37.06690 | 27028 ft | 535 kts | 88° |
| 2026-05-06 14:48 | 34.23569 | 37.11122 | 27052 ft | 533 kts | 73° |
| 2026-05-06 14:49 | 34.24911 | 37.15252 | 27048 ft | 526 kts | 59° |
| 2026-05-06 14:49 | 34.26955 | 37.18888 | 27030 ft | 520 kts | 46° |
| 2026-05-06 14:49 | 34.29563 | 37.21866 | 27037 ft | 512 kts | 33° |
| 2026-05-06 14:49 | 34.32581 | 37.24070 | 27025 ft | 504 kts | 20° |
| 2026-05-06 14:50 | 34.35858 | 37.25447 | 27019 ft | 495 kts | 7° |
| 2026-05-06 14:50 | 34.39235 | 37.25984 | 27020 ft | 484 kts | 355° |
| 2026-05-06 14:50 | 34.42591 | 37.25920 | 27032 ft | 481 kts | 352° |
| 2026-05-06 14:50 | 34.45934 | 37.25781 | 27028 ft | 481 kts | 352° |
| 2026-05-06 14:51 | 34.49288 | 37.25652 | 27036 ft | 482 kts | 352° |
| 2026-05-06 14:51 | 34.52642 | 37.25546 | 27036 ft | 482 kts | 352° |
| 2026-05-06 14:51 | 34.55995 | 37.25451 | 27030 ft | 482 kts | 352° |
| 2026-05-06 14:51 | 34.59349 | 37.25357 | 27039 ft | 482 kts | 353° |
| 2026-05-06 14:52 | 34.62698 | 37.25269 | 27046 ft | 482 kts | 353° |
| 2026-05-06 14:52 | 34.66014 | 37.25176 | 27035 ft | 481 kts | 353° |
| 2026-05-06 14:52 | 34.69372 | 37.25083 | 27042 ft | 482 kts | 353° |
| 2026-05-06 14:52 | 34.72724 | 37.24989 | 27038 ft | 482 kts | 353° |
| 2026-05-06 14:53 | 34.76071 | 37.24894 | 27038 ft | 481 kts | 353° |
| 2026-05-06 14:53 | 34.79383 | 37.24811 | 26926 ft | 467 kts | 353° |
| 2026-05-06 14:53 | 34.82585 | 37.24729 | 26563 ft | 452 kts | 353° |
| 2026-05-06 14:53 | 34.85690 | 37.24636 | 26268 ft | 442 kts | 353° |
| 2026-05-06 14:54 | 34.88764 | 37.24544 | 26001 ft | 441 kts | 353° |
| 2026-05-06 14:54 | 34.91824 | 37.24452 | 25750 ft | 439 kts | 353° |
| 2026-05-06 14:54 | 34.94877 | 37.24355 | 25505 ft | 438 kts | 353° |
| 2026-05-06 14:54 | 34.97878 | 37.24265 | 25262 ft | 436 kts | 353° |
| 2026-05-06 14:55 | 35.00907 | 37.24178 | 25029 ft | 435 kts | 353° |
| 2026-05-06 14:55 | 35.03928 | 37.24090 | 24819 ft | 432 kts | 353° |
| 2026-05-06 14:55 | 35.06924 | 37.24060 | 24393 ft | 429 kts | 358° |
| 2026-05-06 14:55 | 35.09888 | 37.24446 | 23709 ft | 428 kts | 2° |
| 2026-05-06 14:56 | 35.12826 | 37.24935 | 22905 ft | 425 kts | 3° |
| 2026-05-06 14:56 | 35.15740 | 37.25412 | 22135 ft | 420 kts | 2° |
| 2026-05-06 14:56 | 35.18632 | 37.25867 | 21398 ft | 416 kts | 2° |
| 2026-05-06 14:56 | 35.21494 | 37.26309 | 20702 ft | 412 kts | 3° |
| 2026-05-06 14:57 | 35.24323 | 37.26742 | 20020 ft | 408 kts | 3° |
| 2026-05-06 14:57 | 35.27126 | 37.27170 | 19347 ft | 404 kts | 3° |
| 2026-05-06 14:57 | 35.29900 | 37.27594 | 18695 ft | 400 kts | 3° |
| 2026-05-06 14:57 | 35.32650 | 37.28017 | 18014 ft | 397 kts | 3° |
| 2026-05-06 14:58 | 35.35374 | 37.28434 | 17293 ft | 393 kts | 3° |
| 2026-05-06 14:58 | 35.38043 | 37.28842 | 16620 ft | 390 kts | 3° |
| 2026-05-06 14:58 | 35.40756 | 37.29259 | 15954 ft | 386 kts | 4° |
| 2026-05-06 14:58 | 35.43378 | 37.29661 | 15326 ft | 383 kts | 4° |
| 2026-05-06 14:59 | 35.46015 | 37.30066 | 14710 ft | 380 kts | 4° |
| 2026-05-06 14:59 | 35.48627 | 37.30467 | 14101 ft | 376 kts | 4° |
| 2026-05-06 14:59 | 35.51215 | 37.30867 | 13456 ft | 373 kts | 4° |
| 2026-05-06 14:59 | 35.53781 | 37.31265 | 12796 ft | 370 kts | 4° |
| 2026-05-06 15:00 | 35.56323 | 37.31656 | 12182 ft | 366 kts | 5° |
| 2026-05-06 15:00 | 35.58839 | 37.32043 | 11575 ft | 362 kts | 5° |
| 2026-05-06 15:00 | 35.61321 | 37.32427 | 11095 ft | 355 kts | 5° |
| 2026-05-06 15:00 | 35.63729 | 37.32801 | 10831 ft | 342 kts | 5° |
| 2026-05-06 15:01 | 35.66048 | 37.33160 | 10626 ft | 328 kts | 5° |
| 2026-05-06 15:01 | 35.68268 | 37.33503 | 10441 ft | 314 kts | 5° |
| 2026-05-06 15:01 | 35.70389 | 37.33834 | 10259 ft | 301 kts | 5° |
| 2026-05-06 15:01 | 35.72411 | 37.34150 | 9984 ft | 294 kts | 6° |
| 2026-05-06 15:02 | 35.74430 | 37.34477 | 9542 ft | 292 kts | 5° |
| 2026-05-06 15:02 | 35.76439 | 37.34792 | 9066 ft | 291 kts | 5° |
| 2026-05-06 15:02 | 35.78440 | 37.35096 | 8615 ft | 289 kts | 5° |
| 2026-05-06 15:02 | 35.80434 | 37.35409 | 8149 ft | 288 kts | 6° |
| 2026-05-06 15:03 | 35.82431 | 37.35720 | 7658 ft | 289 kts | 6° |
| 2026-05-06 15:03 | 35.84430 | 37.36031 | 7187 ft | 290 kts | 5° |
| 2026-05-06 15:03 | 35.86424 | 37.36328 | 6797 ft | 288 kts | 5° |
| 2026-05-06 15:03 | 35.88401 | 37.36649 | 6429 ft | 285 kts | 5° |
| 2026-05-06 15:04 | 35.90359 | 37.36953 | 6037 ft | 282 kts | 5° |
| 2026-05-06 15:04 | 35.92300 | 37.37246 | 5660 ft | 280 kts | 5° |
| 2026-05-06 15:04 | 35.94225 | 37.37538 | 5296 ft | 276 kts | 5° |
| 2026-05-06 15:04 | 35.96120 | 37.37828 | 4933 ft | 273 kts | 5° |
| 2026-05-06 15:05 | 35.97968 | 37.38115 | 4591 ft | 269 kts | 4° |
| 2026-05-06 15:05 | 35.99842 | 37.38403 | 4183 ft | 267 kts | 4° |
| 2026-05-06 15:05 | 36.01684 | 37.38693 | 3743 ft | 266 kts | 4° |
| 2026-05-06 15:05 | 36.03497 | 37.38977 | 3337 ft | 265 kts | 4° |
| 2026-05-06 15:06 | 36.05320 | 37.39262 | 3034 ft | 260 kts | 4° |
| 2026-05-06 15:06 | 36.07064 | 37.39538 | 2958 ft | 244 kts | 4° |
| 2026-05-06 15:06 | 36.08683 | 37.39797 | 2944 ft | 225 kts | 3° |
| 2026-05-06 15:06 | 36.10140 | 37.40028 | 2985 ft | 197 kts | 2° |
| 2026-05-06 15:07 | 36.11423 | 37.40225 | 2993 ft | 175 kts | 1° |
| 2026-05-06 15:07 | 36.12569 | 37.40405 | 2962 ft | 160 kts | 0° |
| 2026-05-06 15:07 | 36.13673 | 37.40577 | 2963 ft | 161 kts | 1° |
| 2026-05-06 15:07 | 36.14793 | 37.40727 | 2978 ft | 161 kts | 357° |
| 2026-05-06 15:08 | 36.15809 | 37.40389 | 2981 ft | 149 kts | 318° |
| 2026-05-06 15:08 | 36.16373 | 37.39369 | 2990 ft | 144 kts | 288° |
| 2026-05-06 15:08 | 36.16606 | 37.38177 | 2995 ft | 145 kts | 278° |
| 2026-05-06 15:08 | 36.16708 | 37.36976 | 3021 ft | 131 kts | 277° |
| 2026-05-06 15:09 | 36.16808 | 37.35887 | 3021 ft | 126 kts | 276° |
| 2026-05-06 15:09 | 36.16909 | 37.34807 | 2993 ft | 127 kts | 276° |
| 2026-05-06 15:09 | 36.17012 | 37.33708 | 2861 ft | 129 kts | 276° |
| 2026-05-06 15:09 | 36.17116 | 37.32607 | 2709 ft | 129 kts | 276° |
| 2026-05-06 15:10 | 36.17220 | 37.31511 | 2535 ft | 126 kts | 276° |
| 2026-05-06 15:10 | 36.17322 | 37.30442 | 2371 ft | 126 kts | 277° |
| 2026-05-06 15:10 | 36.17424 | 37.29364 | 2190 ft | 126 kts | 277° |
| 2026-05-06 15:10 | 36.17527 | 37.28280 | 2006 ft | 129 kts | 278° |
| 2026-05-06 15:11 | 36.17624 | 37.27180 | 1855 ft | 126 kts | 275° |
| 2026-05-06 15:11 | 36.17714 | 37.26094 | 1663 ft | 129 kts | 276° |
| 2026-05-06 15:11 | 36.17819 | 37.24996 | 1463 ft | 126 kts | 275° |
| 2026-05-06 15:11 | 36.17923 | 37.23935 | 1302 ft | 126 kts | 277° |
| 2026-05-06 15:12 | 36.18016 | 37.22985 | 1270 ft | 86 kts | 277° |
| 2026-05-06 15:12 | 36.18061 | 37.22485 | 1271 ft | 38 kts | 276° |
| 2026-05-06 15:12 | 36.18092 | 37.22157 | 1273 ft | 39 kts | 277° |
| 2026-05-06 15:12 | 36.18120 | 37.21859 | 1273 ft | 26 kts | 277° |
| 2026-05-06 15:13 | 36.18218 | 37.21804 | 1274 ft | 11 kts | 8° |
| 2026-05-06 15:13 | 36.18274 | 37.21867 | 1274 ft | 14 kts | 86° |
| 2026-05-06 15:13 | 36.18263 | 37.21992 | 1273 ft | 15 kts | 96° |
| 2026-05-06 15:13 | 36.18250 | 37.22132 | 1272 ft | 17 kts | 96° |
| 2026-05-06 15:14 | 36.18236 | 37.22289 | 1273 ft | 19 kts | 96° |
| 2026-05-06 15:14 | 36.18221 | 37.22460 | 1278 ft | 21 kts | 96° |
| 2026-05-06 15:14 | 36.18205 | 37.22627 | 1274 ft | 18 kts | 97° |
| 2026-05-06 15:14 | 36.18276 | 37.22703 | 1276 ft | 13 kts | 20° |
| 2026-05-06 15:15 | 36.18333 | 37.22755 | 1270 ft | 6 kts | 3° |
| 2026-05-06 15:15 | 36.18371 | 37.22757 | 1273 ft | 4 kts | 7° |
| 2026-05-06 15:15 | 36.18392 | 37.22760 | 1270 ft | 0 kts | 6° |